Delta Junction, AK (99737)

3:13 PM AKDT on June 22, 2017 (GMT -0800)
Allen Army Air Field | | Change Station

Elev 1276 ft 63.99 °N, 145.72 °W | Updated 20 minutes ago

Mostly Cloudy
Mostly Cloudy
73 °F
Feels Like 73 °F
N
4
Wind Variable Wind from East

Today
High -- | Low -- °F
--% Chance of Precip.
Yesterday
High -- | Low -- °F
Precip. -- in
Pressure 30.25 in
Visibility 10.0 miles
Clouds Few 7500 ft
Scattered Clouds 8000 ft
Scattered Clouds 11000 ft
Mostly Cloudy 20000 ft
Dew Point 38 °F
Humidity 28%
Rainfall 0.00 in
Snow Depth Not available.
3:13 AM 0:16 AM
Waning Crescent, 2% visible
METAR PABI 222253Z 09003KT 10SM FEW075 SCT080 SCT110 BKN200 23/03 A3025 RMK AO2 SLP243 SHRA DSNT SE VIRGA DSNT SW CIG THN T02280033
Pressure 30.25 in
Visibility 10.0 miles
Clouds Few 7500 ft
Scattered Clouds 8000 ft
Scattered Clouds 11000 ft
Mostly Cloudy 20000 ft
Dew Point 38 °F
Humidity 28%
Rainfall 0.00 in
Snow Depth Not available.
3:13 AM 0:16 AM
Waning Crescent, 2% visible
METAR PABI 222253Z 09003KT 10SM FEW075 SCT080 SCT110 BKN200 23/03 A3025 RMK AO2 SLP243 SHRA DSNT SE VIRGA DSNT SW CIG THN T02280033

Get Severe Weather Alerts

Thanks for signing up!

Be on the lookout for a verification email in your inbox.

You'll start receiving the daily forecast at 6 AM.

×

10-Day Weather Forecast

Almanac

Astronomy

Jun. 22, 2017 Rise Set
Actual Time
Civil Twilight
Nautical Twilight
Astronomical Twilight
Moon
Length of Visible Light
Length of Day
Tomorrow will be .
, % of the Moon is Illuminated

Today's Extremes

State Highs State Lows

Community

WunderPhotos

Category 6

Welcome to Category 6. This is the collective home for Weather Underground's featured writeups by Dr. Jeff Masters (right), Bob Henson (left), Chris Burt, and other regular contributors.

Nearby

Air Quality

  Air Quality AQ Index Pollutant
Not available.

Snow Depth

Station Depth Elevation

Earthquake Activity

City Distance Mag. Time & Date
Minimum magnitude displayed is 2.5.

Coastal Water Temperatures

Place Temperature

Stations

Nearby Weather Stations

Station Location Temp. Windchill Dew Point Humidity Wind Precip. Elev Updated Type
                   

Watches & Warnings

There are currently no watches in effect.